Time;durP1;ratioP1;P1;durP2;ratioP2;P2;SDS_P1;SDS_P2;PMS_P1;PMS_P2;Temp;Humidity;BMP_temperature;BMP_pressure;BME280_temperature;BME280_humidity;BME280_pressure;Samples;Min_cycle;Max_cycle;Signal;HPM_P1;HPM_P2
2021/07/07 00:01:53;;;;;;;1.65;1.30;;;;;;;21.69;60.95;100110.94;4984096;28;20061;-72
2021/07/07 00:04:18;;;;;;;2.20;1.40;;;;;;;21.68;60.81;100112.81;5046138;28;20036;-73
2021/07/07 00:06:44;;;;;;;2.17;1.40;;;;;;;21.68;60.92;100114.66;5035278;28;20095;-72
2021/07/07 00:09:09;;;;;;;2.08;1.30;;;;;;;21.68;61.12;100117.34;5013798;28;20057;-73
2021/07/07 00:11:35;;;;;;;1.77;1.35;;;;;;;21.68;60.81;100130.69;5047291;28;20071;-72
2021/07/07 00:14:00;;;;;;;2.50;1.50;;;;;;;21.69;61.03;100124.31;5029806;28;20041;-73
2021/07/07 00:16:27;;;;;;;1.75;1.30;;;;;;;21.68;60.86;100120.81;5031520;28;20052;-73
2021/07/07 00:18:53;;;;;;;1.80;1.30;;;;;;;21.68;60.56;100125.34;5034094;28;20061;-73
2021/07/07 00:21:19;;;;;;;2.22;1.13;;;;;;;21.67;60.62;100126.38;5050396;28;20293;-73
2021/07/07 00:23:45;;;;;;;2.00;1.23;;;;;;;21.67;60.87;100135.22;5011334;28;20041;-72
2021/07/07 00:26:10;;;;;;;1.80;1.30;;;;;;;21.67;60.53;100129.06;5044241;28;20040;-71
2021/07/07 00:28:36;;;;;;;1.50;1.30;;;;;;;21.67;60.65;100131.72;5050760;28;20419;-71
2021/07/07 00:31:02;;;;;;;1.90;1.25;;;;;;;21.67;60.53;100134.41;5016852;28;20045;-71
2021/07/07 00:33:27;;;;;;;2.35;1.40;;;;;;;21.66;60.76;100136.25;5051071;28;20124;-70
2021/07/07 00:35:53;;;;;;;1.88;1.48;;;;;;;21.66;60.66;100143.44;5033705;28;20106;-70
2021/07/07 00:38:19;;;;;;;1.90;1.35;;;;;;;21.66;60.46;100143.44;5050622;28;20662;-71
2021/07/07 00:40:45;;;;;;;2.50;1.40;;;;;;;21.65;60.24;100153.31;5051532;28;20039;-70
2021/07/07 00:43:13;;;;;;;3.33;1.38;;;;;;;21.66;60.20;100143.44;5050630;28;20043;-71
2021/07/07 00:45:39;;;;;;;2.42;1.23;;;;;;;21.66;60.62;100151.44;5051170;28;20037;-70
2021/07/07 00:48:04;;;;;;;3.40;1.40;;;;;;;21.65;60.12;100147.97;5051074;28;20044;-70
2021/07/07 00:50:30;;;;;;;3.22;1.40;;;;;;;21.64;60.67;100146.34;5015998;28;20064;-70
2021/07/07 00:52:59;;;;;;;3.63;1.27;;;;;;;21.63;60.24;100147.38;5027949;28;20030;-70
2021/07/07 00:55:25;;;;;;;1.33;1.00;;;;;;;21.64;60.51;100143.69;5031443;28;20064;-71
2021/07/07 00:57:51;;;;;;;1.33;1.20;;;;;;;21.64;60.47;100156.22;5046366;28;20056;-70
2021/07/07 01:00:26;;;;;;;1.88;1.38;;;;;;;21.62;60.18;100160.94;5050145;28;20041;-71
2021/07/07 01:02:53;;;;;;;;;;;;;;;21.55;60.50;100160.22;5033523;28;20527;-71
2021/07/07 01:05:19;;;;;;;2.40;1.30;;;;;;;21.62;60.41;100163.59;5022835;28;19914;-70
2021/07/07 01:07:45;;;;;;;2.28;1.30;;;;;;;21.62;60.56;100159.09;5008151;28;20400;-70
2021/07/07 01:10:12;;;;;;;1.65;1.20;;;;;;;21.62;60.20;100160.94;5031010;28;20037;-70
2021/07/07 01:12:38;;;;;;;1.63;1.40;;;;;;;21.62;60.47;100172.44;5030518;28;20053;-70
2021/07/07 01:15:09;;;;;;;1.98;1.00;;;;;;;21.62;60.38;100169.78;5030459;28;20095;-70
2021/07/07 01:17:35;;;;;;;1.40;1.10;;;;;;;21.61;60.24;100176.13;5031255;28;20393;-70
2021/07/07 01:20:04;;;;;;;1.58;1.08;;;;;;;21.61;60.04;100181.47;5029582;28;20465;-71
2021/07/07 01:22:30;;;;;;;1.58;1.20;;;;;;;21.62;60.18;100184.94;5029316;28;20025;-70
2021/07/07 01:24:56;;;;;;;1.52;1.20;;;;;;;21.62;59.99;100190.28;5030688;28;20026;-71
2021/07/07 01:27:22;;;;;;;1.75;1.20;;;;;;;21.62;60.20;100190.28;5029440;28;20041;-70
2021/07/07 01:29:48;;;;;;;1.55;1.17;;;;;;;21.62;59.99;100188.47;5011947;28;20041;-70
2021/07/07 01:32:13;;;;;;;1.10;0.93;;;;;;;21.61;59.99;100192.16;5012151;28;20063;-71
2021/07/07 01:34:39;;;;;;;1.52;1.10;;;;;;;21.62;59.89;100190.28;5009343;28;20046;-70
2021/07/07 01:37:05;;;;;;;1.48;1.10;;;;;;;21.61;59.92;100188.66;5028962;28;20061;-71
2021/07/07 01:39:30;;;;;;;1.60;1.15;;;;;;;21.62;60.20;100195.63;5030342;28;20029;-70
2021/07/07 01:41:56;;;;;;;2.53;1.30;;;;;;;21.61;60.00;100199.34;4992660;28;20392;-70
2021/07/07 01:44:21;;;;;;;1.38;1.20;;;;;;;21.60;60.41;100206.53;5018200;28;20069;-71
2021/07/07 01:46:47;;;;;;;1.50;1.10;;;;;;;21.61;60.25;100202.81;5030091;28;20095;-71
2021/07/07 01:49:12;;;;;;;1.65;1.10;;;;;;;21.61;59.95;100202.00;5011941;28;20033;-70
2021/07/07 01:51:38;;;;;;;1.00;0.90;;;;;;;21.61;59.94;100199.34;4995904;28;20049;-70
2021/07/07 01:54:04;;;;;;;1.70;1.13;;;;;;;21.59;59.80;100186.22;4997473;28;20033;-70
2021/07/07 01:56:30;;;;;;;1.90;1.00;;;;;;;21.61;60.02;100207.34;5009429;28;20485;-71
2021/07/07 01:58:56;;;;;;;1.33;1.00;;;;;;;21.60;60.24;100203.88;5021124;28;20120;-70
2021/07/07 02:01:21;;;;;;;1.90;1.00;;;;;;;21.60;60.18;100209.19;5007313;28;20480;-70
2021/07/07 02:03:47;;;;;;;1.20;1.05;;;;;;;21.60;59.70;100206.53;5011318;28;20056;-71
2021/07/07 02:06:12;;;;;;;1.55;1.10;;;;;;;21.59;59.89;100210.25;5031583;28;20037;-70
2021/07/07 02:08:38;;;;;;;1.60;1.00;;;;;;;21.59;60.17;100210.25;5030617;28;20037;-70
2021/07/07 02:11:03;;;;;;;1.25;1.05;;;;;;;21.60;60.00;100213.72;5048230;28;20127;-70
2021/07/07 02:13:29;;;;;;;1.55;1.10;;;;;;;21.60;59.76;100216.41;5049478;28;20393;-71
2021/07/07 02:15:55;;;;;;;1.48;1.20;;;;;;;21.60;60.03;100216.41;5014541;28;20068;-71
2021/07/07 02:18:20;;;;;;;1.85;1.20;;;;;;;21.60;59.82;100219.88;5029167;28;20437;-71
2021/07/07 02:20:47;;;;;;;1.30;1.10;;;;;;;21.59;60.07;100223.59;5048605;28;20040;-71
2021/07/07 02:23:13;;;;;;;1.73;0.85;;;;;;;21.60;59.97;100224.41;5030369;28;20044;-70
2021/07/07 02:25:43;;;;;;;1.75;1.10;;;;;;;21.60;59.70;100229.75;5030386;28;20025;-70
2021/07/07 02:28:09;;;;;;;1.60;1.00;;;;;;;21.59;59.67;100236.94;5047939;28;20752;-71
2021/07/07 02:30:36;;;;;;;2.15;1.10;;;;;;;21.60;59.62;100232.41;5014772;28;20040;-71
2021/07/07 02:33:04;;;;;;;1.48;1.15;;;;;;;21.60;59.62;100240.41;5015028;28;20036;-70
2021/07/07 02:35:33;;;;;;;1.42;1.10;;;;;;;21.60;59.68;100235.06;5030636;28;20041;-70
2021/07/07 02:37:59;;;;;;;1.27;1.02;;;;;;;21.59;59.62;100236.94;5048695;28;20033;-71
2021/07/07 02:40:31;;;;;;;1.65;1.10;;;;;;;21.58;59.82;100240.63;5048370;28;20037;-71
2021/07/07 02:42:57;;;;;;;2.03;1.20;;;;;;;21.59;59.84;100238.78;5047963;28;20091;-71
2021/07/07 02:45:23;;;;;;;1.23;0.95;;;;;;;21.59;59.95;100244.13;5017169;28;20728;-71
2021/07/07 02:47:49;;;;;;;1.33;1.00;;;;;;;21.59;59.50;100249.47;5030497;28;20040;-70
2021/07/07 02:50:16;;;;;;;1.27;1.13;;;;;;;21.58;59.52;100248.66;5048753;28;20095;-70
2021/07/07 02:52:44;;;;;;;1.20;1.00;;;;;;;21.59;59.52;100258.28;5027111;28;20436;-71
2021/07/07 02:55:10;;;;;;;1.38;1.00;;;;;;;21.59;59.87;100249.47;5029131;28;20037;-70
2021/07/07 03:00:22;;;;;;;1.33;1.02;;;;;;;21.58;59.52;100258.50;5038751;28;20190;-71
2021/07/07 03:02:48;;;;;;;0.98;0.85;;;;;;;21.57;59.69;100254.22;5000145;28;20053;-70
2021/07/07 03:05:13;;;;;;;1.15;1.02;;;;;;;21.58;59.40;100255.84;5041199;28;20751;-70
2021/07/07 03:07:39;;;;;;;1.23;1.00;;;;;;;21.57;59.47;100260.38;5042220;28;20044;-71
2021/07/07 03:10:09;;;;;;;1.25;1.00;;;;;;;21.57;59.31;100262.22;5030461;28;20046;-70
2021/07/07 03:12:35;;;;;;;1.10;0.90;;;;;;;21.57;59.55;100259.56;5030903;28;20071;-71
2021/07/07 03:15:01;;;;;;;1.42;1.02;;;;;;;21.58;59.21;100263.84;5048007;28;20033;-71
2021/07/07 03:17:27;;;;;;;1.90;0.90;;;;;;;21.57;59.30;100267.56;5030212;28;20025;-71
2021/07/07 03:19:53;;;;;;;1.13;0.90;;;;;;;21.57;59.53;100267.56;5048345;28;20067;-71
2021/07/07 03:22:19;;;;;;;1.35;1.00;;;;;;;21.57;59.31;100267.56;5030652;28;20041;-71
2021/07/07 03:24:45;;;;;;;1.13;0.95;;;;;;;21.56;59.61;100277.41;5029245;28;20095;-71
2021/07/07 03:27:10;;;;;;;1.65;1.00;;;;;;;21.56;59.21;100277.41;5035246;28;20033;-71
2021/07/07 03:29:36;;;;;;;0.88;0.80;;;;;;;21.56;59.57;100287.28;5047286;28;20047;-71
2021/07/07 03:32:02;;;;;;;2.20;1.02;;;;;;;21.57;59.59;100291.56;5029840;28;20566;-71
2021/07/07 03:34:27;;;;;;;0.88;0.80;;;;;;;21.56;59.17;100297.97;5037774;28;20042;-71
2021/07/07 03:36:53;;;;;;;1.17;0.95;;;;;;;21.56;59.47;100303.28;5045066;28;20059;-71
2021/07/07 03:39:18;;;;;;;0.90;0.77;;;;;;;21.55;59.35;100302.47;5048136;28;20934;-71
2021/07/07 03:41:44;;;;;;;2.58;1.00;;;;;;;21.56;59.50;100303.28;5046901;28;20037;-72
2021/07/07 03:44:09;;;;;;;0.98;0.80;;;;;;;21.54;59.46;100306.19;5023766;28;20041;-71
2021/07/07 03:46:35;;;;;;;2.08;1.00;;;;;;;21.56;59.32;100313.97;5047494;28;20040;-71
2021/07/07 03:49:00;;;;;;;0.95;0.80;;;;;;;21.55;59.64;100315.00;5049091;28;20033;-71
2021/07/07 03:51:25;;;;;;;0.82;0.70;;;;;;;21.55;59.55;100320.34;5049751;28;20056;-71
2021/07/07 03:53:51;;;;;;;0.90;0.85;;;;;;;21.55;59.26;100320.34;5051346;28;20028;-71
2021/07/07 03:56:16;;;;;;;1.95;1.10;;;;;;;21.55;59.05;100323.00;5033877;28;20025;-71
2021/07/07 03:58:42;;;;;;;2.53;1.00;;;;;;;21.55;59.17;100331.03;5032922;28;20033;-71
2021/07/07 04:01:07;;;;;;;1.10;0.90;;;;;;;21.55;59.46;100336.34;5033673;28;20053;-71
2021/07/07 04:03:32;;;;;;;0.80;0.80;;;;;;;21.53;59.36;100337.41;5033465;28;20432;-71
2021/07/07 04:05:58;;;;;;;0.70;0.70;;;;;;;21.53;59.37;100337.41;5051900;28;20037;-72
2021/07/07 04:08:23;;;;;;;0.80;0.70;;;;;;;21.52;59.10;100341.09;5033671;28;20041;-71
2021/07/07 04:10:49;;;;;;;1.30;1.00;;;;;;;21.53;59.48;100347.25;5033830;28;20381;-71
2021/07/07 04:13:14;;;;;;;1.33;1.00;;;;;;;21.53;59.02;100347.25;5032484;28;20421;-71
2021/07/07 04:15:40;;;;;;;1.05;0.88;;;;;;;21.53;59.41;100350.75;5051853;28;20029;-71
2021/07/07 04:18:08;;;;;;;1.77;0.98;;;;;;;21.53;58.93;100352.59;5033246;28;20525;-71
2021/07/07 04:20:34;;;;;;;1.60;0.98;;;;;;;21.53;59.42;100360.59;5033999;28;20045;-71
2021/07/07 04:23:00;;;;;;;1.00;0.90;;;;;;;21.52;59.38;100361.63;5033201;28;20075;-71
2021/07/07 04:25:25;;;;;;;1.23;0.88;;;;;;;21.52;59.20;100364.31;5037589;28;20025;-71
2021/07/07 04:27:51;;;;;;;1.25;1.00;;;;;;;21.51;58.91;100360.81;5033236;28;20132;-71
2021/07/07 04:30:18;;;;;;;1.25;0.90;;;;;;;21.51;59.20;100366.16;5050728;28;20142;-71
2021/07/07 04:32:45;;;;;;;1.35;0.70;;;;;;;21.52;59.08;100367.78;5033559;28;20044;-71
2021/07/07 04:35:11;;;;;;;2.40;0.90;;;;;;;21.51;59.32;100366.16;5033019;28;20065;-71
2021/07/07 04:37:37;;;;;;;1.23;1.08;;;;;;;21.52;59.16;100373.13;5051738;28;20052;-71
2021/07/07 04:40:07;;;;;;;0.77;0.70;;;;;;;21.51;58.92;100371.50;5016664;28;20045;-72
2021/07/07 04:42:33;;;;;;;1.10;0.82;;;;;;;21.52;58.85;100372.31;5050275;28;20547;-71
2021/07/07 04:44:59;;;;;;;1.52;0.93;;;;;;;21.51;58.95;100376.84;5016909;28;20041;-71
2021/07/07 04:47:24;;;;;;;1.40;0.80;;;;;;;21.51;59.00;100382.19;5017068;28;20032;-71
2021/07/07 04:49:50;;;;;;;1.20;0.73;;;;;;;21.51;59.20;100379.50;5034012;28;20052;-71
2021/07/07 04:52:16;;;;;;;0.95;0.82;;;;;;;21.50;59.08;100380.53;5032640;28;20505;-71
2021/07/07 04:54:41;;;;;;;1.33;0.90;;;;;;;21.50;59.25;100385.88;5051284;28;20159;-71
2021/07/07 04:57:07;;;;;;;1.25;0.90;;;;;;;21.51;59.25;100386.69;5032449;28;20025;-71
2021/07/07 04:59:32;;;;;;;0.80;0.80;;;;;;;21.50;58.84;100393.06;5049961;28;20033;-71
2021/07/07 05:01:58;;;;;;;1.00;0.80;;;;;;;21.50;59.06;100401.06;5015729;28;20693;-71
2021/07/07 05:04:23;;;;;;;1.00;0.80;;;;;;;21.50;59.19;100399.22;5049162;28;20047;-71
2021/07/07 05:06:49;;;;;;;0.70;0.70;;;;;;;21.49;58.83;100397.59;5023671;28;20106;-71
2021/07/07 05:09:14;;;;;;;0.80;0.80;;;;;;;21.49;59.25;100392.25;5039229;28;20091;-71
2021/07/07 05:11:40;;;;;;;0.70;0.70;;;;;;;21.50;59.01;100390.41;5035665;28;20068;-71
2021/07/07 05:14:07;;;;;;;0.95;0.80;;;;;;;21.50;58.80;100403.75;5052891;28;20045;-71
2021/07/07 05:16:32;;;;;;;1.23;0.82;;;;;;;21.49;58.81;100396.78;5053074;28;20029;-71
2021/07/07 05:18:58;;;;;;;1.10;0.88;;;;;;;21.49;59.16;100400.25;5052879;28;20044;-71
2021/07/07 05:21:23;;;;;;;1.58;0.90;;;;;;;21.49;58.86;100396.78;5054718;28;20043;-71
2021/07/07 05:23:49;;;;;;;1.10;0.90;;;;;;;21.49;58.91;100391.44;5015853;28;20126;-71
2021/07/07 05:26:14;;;;;;;1.08;0.80;;;;;;;21.49;59.06;100397.59;5036257;28;20121;-71
2021/07/07 05:28:40;;;;;;;1.65;0.70;;;;;;;21.48;58.90;100398.63;5033744;28;20102;-71
2021/07/07 05:31:07;;;;;;;1.00;0.90;;;;;;;21.48;58.99;100409.31;5034979;28;20464;-71
2021/07/07 05:33:34;;;;;;;1.42;0.90;;;;;;;21.48;58.90;100417.31;5036653;28;20483;-71
2021/07/07 05:36:02;;;;;;;1.35;0.80;;;;;;;21.49;58.94;100420.78;5035026;28;20090;-71
2021/07/07 05:38:27;;;;;;;1.10;0.80;;;;;;;21.48;58.60;100425.31;5053427;28;20028;-71
2021/07/07 05:40:53;;;;;;;1.65;0.85;;;;;;;21.48;58.79;100425.31;5052426;28;20469;-71
2021/07/07 05:43:18;;;;;;;1.35;0.60;;;;;;;21.48;58.65;100430.66;5035515;28;20051;-71
2021/07/07 05:45:44;;;;;;;1.45;0.80;;;;;;;21.48;59.01;100424.50;5032720;28;20037;-71
2021/07/07 05:48:09;;;;;;;0.85;0.70;;;;;;;21.48;58.64;100427.19;5018150;28;20449;-71
2021/07/07 05:50:35;;;;;;;3.10;0.88;;;;;;;21.46;58.80;100432.72;5033426;28;20037;-71
2021/07/07 05:53:01;;;;;;;1.80;0.82;;;;;;;21.48;58.48;100435.19;5032070;28;20033;-71
2021/07/07 05:55:28;;;;;;;0.70;0.70;;;;;;;21.48;58.98;100435.19;5017698;28;20029;-71
2021/07/07 05:57:54;;;;;;;0.93;0.77;;;;;;;21.48;58.56;100446.66;5008120;28;20033;-71
2021/07/07 06:00:22;;;;;;;1.13;0.90;;;;;;;21.48;58.55;100449.34;5027935;28;20045;-71
2021/07/07 06:02:48;;;;;;;1.27;0.85;;;;;;;21.47;58.75;100449.56;5034277;28;20128;-72
2021/07/07 06:05:15;;;;;;;1.13;0.88;;;;;;;21.47;58.37;100455.72;5056153;28;20162;-71
2021/07/07 06:07:41;;;;;;;1.30;1.00;;;;;;;21.47;58.71;100461.06;5062363;28;20557;-72
2021/07/07 06:10:09;;;;;;;1.02;0.70;;;;;;;21.47;58.30;100466.38;5030959;28;20087;-72
2021/07/07 06:12:35;;;;;;;1.20;0.90;;;;;;;21.48;58.76;100472.53;5032909;28;20032;-72
2021/07/07 06:15:01;;;;;;;1.48;0.80;;;;;;;21.47;58.80;100477.06;5051819;28;20037;-71
2021/07/07 06:17:26;;;;;;;0.88;0.77;;;;;;;21.47;58.72;100478.91;5050738;28;20196;-72
2021/07/07 06:19:52;;;;;;;1.42;0.90;;;;;;;21.47;58.76;100486.91;5018358;28;20209;-72
2021/07/07 06:22:18;;;;;;;1.35;0.77;;;;;;;21.47;58.77;100493.06;5025893;28;20113;-72
2021/07/07 06:24:43;;;;;;;2.17;0.80;;;;;;;21.47;58.58;100497.59;5030251;28;20487;-72
2021/07/07 06:27:09;;;;;;;1.10;0.70;;;;;;;21.47;58.74;100500.25;5051832;28;20045;-72
2021/07/07 06:29:35;;;;;;;1.00;0.80;;;;;;;21.47;58.77;100511.75;5031299;28;20095;-72
2021/07/07 06:32:01;;;;;;;0.88;0.70;;;;;;;21.47;58.38;100510.94;5052834;28;20037;-72
2021/07/07 06:34:26;;;;;;;1.10;0.90;;;;;;;21.46;58.53;100511.94;5014952;28;20376;-72
2021/07/07 06:36:52;;;;;;;1.77;0.90;;;;;;;21.46;58.85;100507.44;5033247;28;20041;-72
2021/07/07 06:39:17;;;;;;;1.70;0.85;;;;;;;21.46;58.51;100509.28;5051230;28;20051;-72
2021/07/07 06:41:42;;;;;;;1.10;0.80;;;;;;;21.46;58.86;100510.13;5035066;28;20476;-72
2021/07/07 06:44:08;;;;;;;3.15;1.00;;;;;;;21.46;58.60;100510.13;5051387;28;20453;-72
2021/07/07 06:46:35;;;;;;;3.00;0.90;;;;;;;21.47;59.12;100511.75;5052094;28;20083;-73
2021/07/07 06:49:01;;;;;;;2.05;0.80;;;;;;;21.48;59.29;100525.91;5047254;28;20138;-72
2021/07/07 06:51:28;;;;;;;1.50;0.98;;;;;;;21.48;59.21;100531.25;5024668;28;20037;-72
2021/07/07 06:53:53;;;;;;;2.10;1.05;;;;;;;21.47;59.08;100530.44;5052995;28;20041;-72
2021/07/07 06:56:19;;;;;;;2.05;1.25;;;;;;;21.47;59.21;100530.44;5024128;28;20064;-72
2021/07/07 06:58:44;;;;;;;1.83;1.10;;;;;;;21.48;59.19;100534.75;5040824;28;20069;-72
2021/07/07 07:01:10;;;;;;;3.40;1.10;;;;;;;21.49;59.27;100535.56;5048254;28;20041;-72
2021/07/07 07:03:35;;;;;;;2.08;1.13;;;;;;;21.48;59.35;100537.41;5010266;28;20145;-73
2021/07/07 07:06:01;;;;;;;1.65;1.20;;;;;;;21.48;59.59;100548.09;5017818;28;20067;-73
2021/07/07 07:08:26;;;;;;;3.03;1.60;;;;;;;21.49;59.69;100555.06;5033025;28;20045;-72
2021/07/07 07:10:51;;;;;;;2.67;1.40;;;;;;;21.49;59.59;100556.91;5017269;28;20040;-72
2021/07/07 07:13:17;;;;;;;3.33;1.58;;;;;;;21.48;59.80;100556.09;5014520;28;20037;-73
2021/07/07 07:15:46;;;;;;;2.53;1.35;;;;;;;21.48;59.64;100558.75;5036546;28;20124;-72
2021/07/07 07:18:12;;;;;;;3.08;1.17;;;;;;;21.48;59.46;100556.09;5033953;28;20527;-71
2021/07/07 07:20:38;;;;;;;3.97;1.80;;;;;;;21.48;59.79;100571.28;5055001;28;20116;-72
2021/07/07 07:23:04;;;;;;;4.10;1.77;;;;;;;21.47;59.65;100573.13;5033604;28;20043;-72
2021/07/07 07:25:30;;;;;;;2.80;1.63;;;;;;;21.47;59.74;100577.66;5039983;28;20131;-72
2021/07/07 07:27:56;;;;;;;5.05;2.22;;;;;;;21.46;59.82;100587.50;5055082;28;20497;-72
2021/07/07 07:30:21;;;;;;;5.13;1.90;;;;;;;21.47;59.81;100585.66;5030824;28;20043;-72
2021/07/07 07:32:49;;;;;;;4.80;1.58;;;;;;;21.46;59.69;100582.19;5011139;28;20041;-72
2021/07/07 07:35:20;;;;;;;9.68;2.15;;;;;;;21.46;60.25;100590.19;5056831;28;20041;-72
2021/07/07 07:37:51;;;;;;;4.25;1.90;;;;;;;21.46;60.20;100584.84;5060718;28;20044;-72
2021/07/07 07:40:23;;;;;;;7.32;2.53;;;;;;;21.47;60.13;100599.81;5055297;28;20439;-72
2021/07/07 07:42:49;;;;;;;6.30;2.50;;;;;;;21.45;59.70;100604.53;5029615;28;20109;-72
2021/07/07 07:45:14;;;;;;;4.97;2.30;;;;;;;21.43;60.19;100603.94;5053130;28;20535;-72
2021/07/07 07:47:42;;;;;;;6.57;2.70;;;;;;;21.43;60.10;100614.59;5034768;28;20043;-67
2021/07/07 07:50:11;;;;;;;9.85;3.13;;;;;;;21.44;59.91;100618.09;5044485;28;20148;-73
2021/07/07 07:52:41;;;;;;;11.32;3.83;;;;;;;21.41;60.23;100619.34;5015882;28;20203;-72
2021/07/07 07:55:07;;;;;;;11.60;3.85;;;;;;;21.43;60.32;100635.94;5052498;28;20496;-72
2021/07/07 07:57:36;;;;;;;13.02;4.50;;;;;;;21.42;60.05;100630.84;5015304;28;20037;-72
2021/07/07 08:00:18;;;;;;;14.90;4.47;;;;;;;21.38;60.04;100635.78;5046862;28;20714;-72
2021/07/07 08:02:45;;;;;;;14.55;4.95;;;;;;;21.44;60.63;100650.94;5050908;28;20048;-72
2021/07/07 08:05:11;;;;;;;17.67;5.15;;;;;;;21.44;60.73;100653.59;5049516;28;20048;-72
2021/07/07 08:07:38;;;;;;;11.88;4.40;;;;;;;21.44;60.64;100658.94;5029970;28;20119;-72
2021/07/07 08:10:05;;;;;;;15.52;4.75;;;;;;;21.44;60.50;100658.94;5032273;28;20041;-72
2021/07/07 08:12:30;;;;;;;13.38;4.53;;;;;;;21.44;61.02;100664.28;5031954;28;20043;-72
2021/07/07 08:14:56;;;;;;;11.98;4.13;;;;;;;21.45;60.79;100675.75;5049903;28;20045;-72
2021/07/07 08:17:22;;;;;;;11.48;3.97;;;;;;;21.45;60.59;100670.44;5014069;28;20037;-72
2021/07/07 08:19:49;;;;;;;16.30;4.35;;;;;;;21.45;60.67;100678.44;5048160;28;20040;-72
2021/07/07 08:22:16;;;;;;;12.23;3.65;;;;;;;21.44;60.57;100682.94;5028460;28;20029;-72
2021/07/07 08:24:45;;;;;;;11.25;4.40;;;;;;;21.45;60.87;100691.78;5039286;28;20021;-72
2021/07/07 08:27:11;;;;;;;7.72;3.95;;;;;;;21.45;60.95;100691.78;5056003;28;20057;-72
2021/07/07 08:29:38;;;;;;;8.18;3.90;;;;;;;21.43;60.43;100692.00;5033406;28;20064;-72
2021/07/07 08:32:05;;;;;;;10.43;4.13;;;;;;;21.44;60.39;100693.63;5061768;28;20033;-72
2021/07/07 08:34:31;;;;;;;10.32;3.38;;;;;;;21.43;60.44;100694.66;5022918;28;20037;-72
2021/07/07 08:36:57;;;;;;;9.63;3.70;;;;;;;21.42;60.38;100697.53;5062823;28;20043;-72
2021/07/07 08:39:23;;;;;;;6.68;3.45;;;;;;;21.40;60.35;100700.44;5062760;28;20025;-72
2021/07/07 08:41:50;;;;;;;6.10;3.47;;;;;;;21.41;60.34;100712.75;5062440;28;20025;-72
2021/07/07 08:44:15;;;;;;;7.80;3.67;;;;;;;21.40;60.23;100713.78;5044780;28;20040;-72
2021/07/07 08:46:41;;;;;;;9.68;3.47;;;;;;;21.40;60.11;100716.44;5032799;28;20025;-72
2021/07/07 08:49:06;;;;;;;7.25;4.05;;;;;;;21.39;59.78;100716.66;5064504;28;20047;-72
2021/07/07 08:51:32;;;;;;;8.40;3.40;;;;;;;21.40;59.97;100715.63;5040900;28;20112;-72
2021/07/07 08:53:59;;;;;;;7.13;3.80;;;;;;;21.40;60.00;100720.97;5043733;28;20074;-72
2021/07/07 08:56:25;;;;;;;6.95;3.25;;;;;;;21.38;59.90;100718.50;5031372;28;20124;-72
2021/07/07 08:58:51;;;;;;;5.13;3.78;;;;;;;21.40;60.15;100718.28;5032293;28;20423;-72
2021/07/07 09:01:17;;;;;;;7.10;4.25;;;;;;;21.39;59.89;100730.00;5050840;28;20048;-72
2021/07/07 09:03:44;;;;;;;6.65;4.22;;;;;;;21.37;59.91;100730.22;5049996;28;20524;-72
2021/07/07 09:06:11;;;;;;;7.18;4.38;;;;;;;21.38;59.62;100728.34;5023256;28;20054;-72
2021/07/07 09:08:38;;;;;;;6.60;4.10;;;;;;;21.37;59.40;100732.88;5053335;28;20029;-72
2021/07/07 09:11:27;;;;;;;8.20;3.92;;;;;;;21.33;59.59;100736.19;5054863;28;20548;-72
2021/07/07 09:14:14;;;;;;;6.90;4.10;;;;;;;21.32;59.67;100732.69;5051835;28;20055;-72
2021/07/07 09:16:59;;;;;;;4.82;3.50;;;;;;;21.33;59.64;100737.00;5064103;28;20045;-72
2021/07/07 09:19:26;;;;;;;5.07;4.00;;;;;;;21.36;59.29;100741.91;5053874;28;20456;-72
2021/07/07 09:21:55;;;;;;;5.75;3.60;;;;;;;21.36;59.39;100741.91;5053632;28;20037;-72
2021/07/07 09:24:24;;;;;;;4.57;3.83;;;;;;;21.37;59.40;100746.22;5052971;28;20025;-72
2021/07/07 09:27:04;;;;;;;5.57;4.10;;;;;;;21.35;59.51;100742.13;5064872;28;20052;-72
2021/07/07 09:29:38;;;;;;;5.60;3.95;;;;;;;21.36;59.46;100746.44;5052188;28;20044;-72
2021/07/07 09:32:12;;;;;;;5.85;4.00;;;;;;;21.36;59.24;100752.59;5035485;28;20850;-72
2021/07/07 09:34:39;;;;;;;5.05;3.60;;;;;;;21.39;59.57;100765.50;5053026;28;20052;-72
2021/07/07 09:37:08;;;;;;;5.65;3.75;;;;;;;21.39;59.22;100759.34;5054105;28;20043;-72
2021/07/07 09:39:34;;;;;;;7.47;4.55;;;;;;;21.39;59.40;100764.69;5053185;28;20149;-72
2021/07/07 09:41:59;;;;;;;7.32;3.95;;;;;;;21.38;59.24;100761.19;5053847;28;20189;-72
2021/07/07 09:44:32;;;;;;;8.18;4.20;;;;;;;21.36;59.10;100763.25;5060691;28;20485;-71
2021/07/07 09:46:59;;;;;;;6.95;3.80;;;;;;;21.38;59.06;100766.53;5033666;28;20044;-71
2021/07/07 09:49:25;;;;;;;6.68;4.13;;;;;;;21.37;59.15;100764.91;5051667;28;20080;-72
2021/07/07 09:51:51;;;;;;;5.80;3.60;;;;;;;21.38;59.24;100760.38;5042871;28;20033;-72
2021/07/07 09:54:19;;;;;;;5.55;4.03;;;;;;;21.38;58.92;100757.72;5052180;28;20028;-71
2021/07/07 09:56:45;;;;;;;5.10;3.95;;;;;;;21.36;59.07;100755.25;5049598;28;20071;-71
2021/07/07 09:59:10;;;;;;;7.35;3.80;;;;;;;21.36;59.00;100768.59;5049961;28;20124;-72
2021/07/07 10:01:36;;;;;;;5.07;3.65;;;;;;;21.37;59.14;100775.56;5049383;28;20537;-71
2021/07/07 10:04:03;;;;;;;7.13;3.83;;;;;;;21.37;59.24;100777.41;5017680;28;20422;-72
2021/07/07 10:06:29;;;;;;;4.82;3.80;;;;;;;21.36;59.18;100781.13;5040523;28;20049;-72
2021/07/07 10:08:55;;;;;;;5.88;3.50;;;;;;;21.36;59.40;100779.28;5052089;28;20400;-72
2021/07/07 10:11:22;;;;;;;5.05;3.20;;;;;;;21.35;59.08;100788.31;5054125;28;20087;-71
2021/07/07 10:13:48;;;;;;;4.50;3.10;;;;;;;21.37;59.24;100788.91;5051334;28;20060;-71
2021/07/07 10:16:16;;;;;;;6.93;3.38;;;;;;;21.37;58.86;100788.91;5053788;28;20060;-72
2021/07/07 10:18:42;;;;;;;3.63;3.03;;;;;;;21.37;59.17;100794.25;5032102;28;20108;-71
2021/07/07 10:21:08;;;;;;;7.18;3.47;;;;;;;21.36;59.17;100795.28;5032615;28;20029;-72
2021/07/07 10:23:38;;;;;;;5.35;3.28;;;;;;;21.36;59.22;100810.47;5032463;28;20393;-72
2021/07/07 10:26:05;;;;;;;6.10;3.22;;;;;;;21.37;58.86;100818.28;5034133;28;20028;-71
2021/07/07 10:28:31;;;;;;;5.13;3.28;;;;;;;21.37;59.10;100820.94;5053238;28;20059;-71
2021/07/07 10:31:02;;;;;;;5.18;3.00;;;;;;;21.36;58.88;100827.31;5051528;28;20052;-72
2021/07/07 10:33:33;;;;;;;5.70;3.20;;;;;;;21.35;59.22;100831.00;5053791;28;20111;-71
2021/07/07 10:36:19;;;;;;;5.78;3.53;;;;;;;21.34;58.92;100839.22;5042549;28;20602;-71
2021/07/07 10:38:49;;;;;;;5.65;3.20;;;;;;;21.35;58.89;100846.19;5049467;28;20115;-72
2021/07/07 10:41:14;;;;;;;5.10;3.58;;;;;;;21.35;58.87;100840.84;5051697;28;20143;-72
2021/07/07 10:43:45;;;;;;;5.57;4.00;;;;;;;21.32;58.81;100842.09;5032723;28;20124;-71
2021/07/07 10:46:52;;;;;;;7.20;3.63;;;;;;;21.28;58.91;100851.50;5051674;28;20025;-72
2021/07/07 10:49:22;;;;;;;6.20;3.40;;;;;;;21.32;59.05;100858.09;5051914;28;20029;-72
2021/07/07 10:51:52;;;;;;;6.10;3.75;;;;;;;21.33;59.25;100856.25;5053317;28;20112;-71
2021/07/07 10:54:32;;;;;;;5.90;3.42;;;;;;;21.33;59.29;100862.41;5037981;28;20087;-71
2021/07/07 10:57:00;;;;;;;5.38;3.72;;;;;;;21.31;59.46;100861.81;5048272;28;20187;-71
2021/07/07 10:59:45;;;;;;;4.75;3.80;;;;;;;21.28;59.34;100864.03;5034046;28;20108;-71
2021/07/07 11:02:22;;;;;;;4.78;3.60;;;;;;;21.27;59.15;100867.72;5035098;28;20411;-72
2021/07/07 11:05:01;;;;;;;5.07;3.78;;;;;;;21.29;59.27;100877.16;5032016;28;20041;-71
2021/07/07 11:07:33;;;;;;;5.28;3.97;;;;;;;21.26;59.28;100877.59;5045892;28;20021;-72
2021/07/07 11:10:01;;;;;;;5.32;3.78;;;;;;;21.28;59.42;100880.03;5056485;28;20036;-71
2021/07/07 11:12:35;;;;;;;5.55;4.20;;;;;;;21.24;59.61;100887.63;5056970;28;20032;-71
2021/07/07 11:15:27;;;;;;;7.22;4.00;;;;;;;21.21;59.76;100893.38;5046498;28;20029;-72
2021/07/07 11:17:58;;;;;;;6.78;4.00;;;;;;;21.26;59.49;100895.44;5048966;28;20044;-72
2021/07/07 11:20:26;;;;;;;6.25;4.05;;;;;;;21.25;59.27;100905.28;5055842;28;20025;-71
2021/07/07 11:23:11;;;;;;;6.78;5.00;;;;;;;21.20;59.33;100905.06;5056560;28;20032;-72
2021/07/07 11:25:38;;;;;;;6.97;4.40;;;;;;;21.23;59.44;100912.66;5056107;28;20060;-71
2021/07/07 11:28:06;;;;;;;7.03;4.93;;;;;;;21.23;59.41;100918.00;5053037;28;20116;-71